Time;durP1;ratioP1;P1;durP2;ratioP2;P2;SDS_P1;SDS_P2;PMS_P1;PMS_P2;Temp;Humidity;BMP_temperature;BMP_pressure;BME280_temperature;BME280_humidity;BME280_pressure;Samples;Min_cycle;Max_cycle;Signal;HPM_P1;HPM_P2
2022/04/02 00:00:23;;;;;;;7.18;3.17;;;;;;;0.92;67.75;101444.00;5011896;28;20026;-81
2022/04/02 00:02:49;;;;;;;7.15;3.35;;;;;;;0.91;67.83;101452.47;5012668;28;20048;-81
2022/04/02 00:05:15;;;;;;;7.22;3.20;;;;;;;0.96;68.06;101450.06;5013733;28;20131;-81
2022/04/02 00:07:40;;;;;;;5.00;2.78;;;;;;;0.93;67.87;101444.84;5015914;28;20026;-81
2022/04/02 00:10:07;;;;;;;5.63;3.03;;;;;;;0.91;67.91;101449.91;5015933;28;20028;-82
2022/04/02 00:12:32;;;;;;;5.95;3.03;;;;;;;0.92;67.60;101449.09;5014950;28;20030;-82
2022/04/02 00:14:58;;;;;;;5.85;3.00;;;;;;;0.94;67.55;101445.75;5015539;28;20084;-81
2022/04/02 00:17:23;;;;;;;5.88;2.90;;;;;;;0.94;67.16;101453.41;5015727;28;20026;-82
2022/04/02 00:19:48;;;;;;;6.10;2.75;;;;;;;0.96;67.56;101446.66;4999083;28;20030;-81
2022/04/02 00:22:14;;;;;;;5.53;2.92;;;;;;;0.97;67.68;101461.16;4995811;28;20026;-82
2022/04/02 00:24:41;;;;;;;5.00;3.00;;;;;;;0.97;67.41;101458.59;4995813;28;20569;-81
2022/04/02 00:27:06;;;;;;;4.85;2.95;;;;;;;0.97;66.92;101462.03;4995728;28;20022;-81
2022/04/02 00:29:34;;;;;;;4.47;2.63;;;;;;;0.96;67.74;101460.31;4995713;28;20379;-81
2022/04/02 00:31:59;;;;;;;4.68;2.78;;;;;;;0.97;67.27;101456.94;4995546;28;20421;-81
2022/04/02 00:34:25;;;;;;;6.47;3.00;;;;;;;0.97;65.84;101461.16;4995671;28;20109;-81
2022/04/02 00:36:50;;;;;;;7.03;3.00;;;;;;;0.97;66.44;101453.50;4995814;28;20489;-81
2022/04/02 00:39:21;;;;;;;4.55;2.75;;;;;;;0.97;66.88;101446.72;4994757;28;20018;-81
2022/04/02 00:41:47;;;;;;;6.93;3.22;;;;;;;0.97;65.59;101451.81;4995738;28;20030;-82
2022/04/02 00:44:14;;;;;;;5.88;3.00;;;;;;;0.98;65.75;101453.56;5007576;28;20033;-82
2022/04/02 00:46:42;;;;;;;5.60;2.83;;;;;;;0.98;66.41;101447.56;5008083;28;20057;-81
2022/04/02 00:49:10;;;;;;;5.15;2.80;;;;;;;0.97;66.62;101446.72;4995659;28;20033;-82
2022/04/02 00:51:41;;;;;;;5.00;2.90;;;;;;;0.98;66.57;101448.44;4995290;28;20034;-82
2022/04/02 00:54:08;;;;;;;6.47;3.05;;;;;;;0.93;65.44;101447.41;4994880;28;20072;-82
2022/04/02 00:56:35;;;;;;;5.43;3.08;;;;;;;0.94;66.27;101448.28;4995200;28;20049;-81
2022/04/02 00:59:00;;;;;;;5.78;3.08;;;;;;;0.89;66.38;101443.03;4995646;28;20026;-82
2022/04/02 01:01:26;;;;;;;5.80;2.95;;;;;;;0.90;67.24;101450.75;4994507;28;20382;-81
2022/04/02 01:03:51;;;;;;;5.88;2.70;;;;;;;0.90;66.98;101449.88;4995502;28;20541;-81
2022/04/02 01:06:17;;;;;;;4.70;2.70;;;;;;;0.91;66.19;101449.91;4995179;28;20029;-82
2022/04/02 01:08:43;;;;;;;4.72;2.85;;;;;;;0.91;67.07;101451.59;5005933;28;20057;-82
2022/04/02 01:11:08;;;;;;;5.65;2.70;;;;;;;0.91;66.44;101457.59;5014824;28;20069;-82
2022/04/02 01:13:34;;;;;;;5.60;3.03;;;;;;;0.90;65.79;101457.56;5014735;28;20029;-81
2022/04/02 01:16:02;;;;;;;4.55;2.70;;;;;;;0.91;67.01;101454.16;4995597;28;20035;-81
2022/04/02 01:18:28;;;;;;;5.43;2.88;;;;;;;0.90;65.76;101460.09;4994980;28;20026;-81
2022/04/02 01:20:53;;;;;;;5.60;3.15;;;;;;;0.86;64.98;101458.25;4995147;28;20022;-81
2022/04/02 01:23:19;;;;;;;6.47;3.03;;;;;;;0.86;65.81;101461.66;4993777;28;20116;-82
2022/04/02 01:25:47;;;;;;;5.20;2.70;;;;;;;0.87;66.48;101458.28;4994905;28;20049;-81
2022/04/02 01:28:12;;;;;;;6.20;2.90;;;;;;;0.82;65.41;101453.84;4994543;28;20042;-81
2022/04/02 01:30:38;;;;;;;7.40;2.90;;;;;;;0.85;66.40;101447.13;4994514;28;20027;-81
2022/04/02 01:33:03;;;;;;;5.65;3.10;;;;;;;0.82;65.78;101444.50;4995058;28;20026;-81
2022/04/02 01:35:29;;;;;;;6.97;3.10;;;;;;;0.84;66.34;101444.53;4994853;28;20038;-81
2022/04/02 01:37:54;;;;;;;6.00;3.00;;;;;;;0.81;65.75;101445.31;4994625;28;20026;-81
2022/04/02 01:40:20;;;;;;;6.55;3.20;;;;;;;0.82;65.67;101448.72;4994267;28;20030;-81
2022/04/02 01:42:49;;;;;;;6.22;2.90;;;;;;;0.84;65.98;101448.00;5006100;28;20441;-81
2022/04/02 01:45:15;;;;;;;4.22;2.67;;;;;;;0.83;66.04;101450.47;5014313;28;20128;-81
2022/04/02 01:47:40;;;;;;;5.63;2.90;;;;;;;0.83;65.79;101447.91;5014200;28;20480;-81
2022/04/02 01:50:07;;;;;;;5.05;2.70;;;;;;;0.81;65.87;101441.88;5013458;28;20026;-81
2022/04/02 01:52:32;;;;;;;7.28;3.05;;;;;;;0.82;64.55;101447.06;5014070;28;20026;-82
2022/04/02 01:54:57;;;;;;;4.15;2.80;;;;;;;0.82;66.11;101447.06;5014437;28;20041;-81
2022/04/02 01:57:23;;;;;;;6.38;2.80;;;;;;;0.75;65.68;101442.53;5013244;28;20029;-81
2022/04/02 01:59:49;;;;;;;6.15;3.15;;;;;;;0.80;66.26;101458.03;5013830;28;20028;-81
2022/04/02 02:02:16;;;;;;;6.80;2.95;;;;;;;0.79;65.60;101462.28;5013975;28;20112;-81
2022/04/02 02:04:41;;;;;;;6.50;2.83;;;;;;;0.74;65.17;101463.78;5013118;28;20061;-82
2022/04/02 02:07:07;;;;;;;5.40;2.85;;;;;;;0.73;65.30;101460.38;5004264;28;20489;-81
2022/04/02 02:09:33;;;;;;;6.72;2.83;;;;;;;0.74;65.25;101464.69;4996379;28;20379;-82
2022/04/02 02:11:59;;;;;;;6.32;3.13;;;;;;;0.73;65.47;101464.63;5012796;28;20059;-82
2022/04/02 02:14:24;;;;;;;5.38;2.90;;;;;;;0.71;65.91;101464.56;5013426;28;20030;-81
2022/04/02 02:16:50;;;;;;;7.60;2.92;;;;;;;0.70;65.16;101475.59;5013489;28;20073;-81
2022/04/02 02:19:15;;;;;;;6.80;2.90;;;;;;;0.70;65.59;101467.06;5012780;28;20032;-81
2022/04/02 02:21:41;;;;;;;6.65;3.30;;;;;;;0.68;65.19;101472.09;5013403;28;20481;-81
2022/04/02 02:24:06;;;;;;;5.57;3.20;;;;;;;0.64;64.73;101472.84;5015157;28;20513;-82
2022/04/02 02:26:32;;;;;;;5.32;3.00;;;;;;;0.66;65.33;101473.75;5012780;28;20109;-82
2022/04/02 02:28:57;;;;;;;7.28;3.13;;;;;;;0.67;65.89;101477.16;5012993;28;20026;-82
2022/04/02 02:31:23;;;;;;;4.85;2.70;;;;;;;0.67;66.18;101475.50;5012905;28;20032;-81
2022/04/02 02:36:32;;;;;;;4.63;2.78;;;;;;;0.61;64.60;101482.94;4993458;28;20100;-82
2022/04/02 02:38:58;;;;;;;6.47;2.88;;;;;;;0.70;65.58;101474.72;5007534;28;20100;-81
2022/04/02 02:41:23;;;;;;;6.20;3.10;;;;;;;0.61;65.33;101483.81;5013090;28;20041;-81
2022/04/02 02:43:48;;;;;;;6.88;3.20;;;;;;;0.58;65.14;101486.25;5013381;28;20470;-82
2022/04/02 02:46:17;;;;;;;4.85;2.67;;;;;;;0.57;66.05;101481.97;5012521;28;20030;-82
2022/04/02 02:48:43;;;;;;;5.35;2.72;;;;;;;0.54;65.79;101486.09;5013030;28;20038;-81
2022/04/02 02:51:08;;;;;;;5.45;3.00;;;;;;;0.53;66.23;101492.00;5013193;28;20117;-81
2022/04/02 02:53:33;;;;;;;5.70;3.10;;;;;;;0.50;65.89;101479.13;5012259;28;20112;-82
2022/04/02 02:55:59;;;;;;;5.93;2.80;;;;;;;0.50;66.21;101489.34;5009881;28;20042;-82
2022/04/02 02:58:24;;;;;;;6.03;3.00;;;;;;;0.50;66.66;101484.22;4993344;28;20026;-81
2022/04/02 03:00:52;;;;;;;7.22;2.90;;;;;;;0.50;66.68;101479.13;4993072;28;20463;-81
2022/04/02 03:03:17;;;;;;;8.57;3.20;;;;;;;0.44;66.40;101484.88;4992903;28;20026;-81
2022/04/02 03:05:43;;;;;;;5.72;2.90;;;;;;;0.45;66.79;101481.50;4997581;28;20018;-81
2022/04/02 03:08:08;;;;;;;5.80;2.85;;;;;;;0.43;66.35;101480.56;5012115;28;20573;-81
2022/04/02 03:10:34;;;;;;;5.63;2.90;;;;;;;0.39;66.70;101477.03;5012932;28;20107;-81
2022/04/02 03:12:59;;;;;;;5.75;2.90;;;;;;;0.39;66.51;101489.81;5013033;28;20141;-81
2022/04/02 03:15:25;;;;;;;4.50;2.60;;;;;;;0.41;67.23;101479.66;5009804;28;20072;-82
2022/04/02 03:17:52;;;;;;;4.38;2.63;;;;;;;0.44;66.47;101474.66;4992601;28;20039;-82
2022/04/02 03:20:20;;;;;;;4.65;2.70;;;;;;;0.42;66.56;101477.16;4992924;28;20018;-81
2022/04/02 03:22:47;;;;;;;5.93;3.10;;;;;;;0.40;66.69;101478.78;4992416;28;20046;-82
2022/04/02 03:25:15;;;;;;;5.57;2.95;;;;;;;0.43;66.32;101483.13;4993453;28;20030;-82
2022/04/02 03:27:43;;;;;;;6.00;2.85;;;;;;;0.41;66.82;101483.09;4993428;28;20023;-81
2022/04/02 03:30:10;;;;;;;5.15;2.70;;;;;;;0.36;67.11;101487.13;4992737;28;20018;-81
2022/04/02 03:32:37;;;;;;;6.47;2.90;;;;;;;0.34;67.29;101478.53;4993036;28;20116;-81
2022/04/02 03:35:03;;;;;;;5.97;3.22;;;;;;;0.30;66.64;101492.03;5353363;23;20516;-82
2022/04/02 03:37:30;;;;;;;8.10;3.13;;;;;;;0.33;66.32;101488.72;5052274;28;20029;-81
2022/04/02 03:39:55;;;;;;;6.95;2.65;;;;;;;0.32;67.00;101492.97;5053951;28;20029;-81
2022/04/02 03:42:21;;;;;;;5.15;2.97;;;;;;;0.28;66.66;101493.66;5055240;28;20036;-81
2022/04/02 03:44:47;;;;;;;5.55;2.85;;;;;;;0.29;66.86;101496.25;5056074;28;20036;-81
2022/04/02 03:47:13;;;;;;;5.15;2.88;;;;;;;0.30;67.16;101502.25;5055878;28;20071;-81
2022/04/02 03:49:40;;;;;;;6.65;2.70;;;;;;;0.33;66.64;101502.38;5055052;28;20354;-81
2022/04/02 03:52:07;;;;;;;5.25;2.78;;;;;;;0.27;66.90;101509.78;5056803;28;20117;-81
2022/04/02 03:54:35;;;;;;;7.90;3.10;;;;;;;0.30;67.31;101515.00;5056061;28;20029;-81
2022/04/02 03:57:01;;;;;;;4.10;2.53;;;;;;;0.25;67.23;101514.84;5056225;28;20037;-81
2022/04/02 03:59:27;;;;;;;4.75;2.60;;;;;;;0.27;67.39;101517.44;5056529;28;20029;-81
2022/04/02 04:01:53;;;;;;;5.20;2.60;;;;;;;0.27;67.38;101520.88;5054579;28;20405;-82
2022/04/02 04:04:19;;;;;;;5.82;3.00;;;;;;;0.21;67.23;101512.13;5054904;28;20033;-81
2022/04/02 04:06:44;;;;;;;5.00;2.90;;;;;;;0.21;67.14;101518.06;5055657;28;20511;-81
2022/04/02 04:09:13;;;;;;;4.22;2.53;;;;;;;0.19;67.16;101524.81;5055585;28;20021;-81
2022/04/02 04:11:38;;;;;;;5.75;3.10;;;;;;;0.26;67.40;101518.25;5054651;28;20033;-81
2022/04/02 04:14:07;;;;;;;5.60;2.80;;;;;;;0.27;67.13;101520.00;5055606;28;20021;-81
2022/04/02 04:16:32;;;;;;;5.53;2.70;;;;;;;0.19;67.55;101518.84;5054013;28;20070;-81
2022/04/02 04:18:57;;;;;;;5.53;2.88;;;;;;;0.19;67.17;101522.25;5036901;28;20025;-81
2022/04/02 04:21:24;;;;;;;5.05;2.70;;;;;;;0.19;67.14;101527.34;5055381;28;20025;-82
2022/04/02 04:23:50;;;;;;;4.38;2.90;;;;;;;0.13;67.51;101525.44;5072181;28;20025;-81
2022/04/02 04:26:15;;;;;;;6.60;3.00;;;;;;;0.15;67.16;101526.38;5057659;28;20032;-81
2022/04/02 04:28:41;;;;;;;6.75;3.10;;;;;;;0.11;67.48;101524.50;5055405;28;20024;-81
2022/04/02 04:31:07;;;;;;;5.90;2.95;;;;;;;0.10;67.33;101517.69;5054196;28;20075;-81
2022/04/02 04:33:34;;;;;;;5.17;2.90;;;;;;;0.12;67.21;101526.25;5054995;28;20466;-81
2022/04/02 04:35:59;;;;;;;;;;;;;;;0.17;66.99;101523.88;5055399;28;20049;-81
2022/04/02 04:38:25;;;;;;;5.67;2.90;;;;;;;0.13;66.88;101525.44;5054212;28;20023;-81
2022/04/02 04:40:50;;;;;;;5.68;2.83;;;;;;;0.12;67.40;101523.69;5055321;28;20036;-81
2022/04/02 04:43:15;;;;;;;4.30;2.70;;;;;;;0.13;66.69;101530.53;5055000;28;20021;-80
2022/04/02 04:45:43;;;;;;;5.95;2.95;;;;;;;0.12;66.17;101538.16;5054153;28;20033;-82
2022/04/02 04:48:08;;;;;;;5.95;2.88;;;;;;;0.16;66.65;101542.56;5054710;28;20111;-81
2022/04/02 04:50:35;;;;;;;7.05;3.00;;;;;;;0.13;66.49;101548.41;5054648;28;20077;-81
2022/04/02 04:53:00;;;;;;;4.60;2.85;;;;;;;0.14;66.80;101542.50;5053825;28;20472;-81
2022/04/02 04:55:25;;;;;;;5.53;2.90;;;;;;;0.11;66.81;101555.13;5054105;28;20025;-82
2022/04/02 04:57:51;;;;;;;5.57;2.67;;;;;;;0.12;67.46;101554.31;5054569;28;20112;-81
2022/04/02 05:00:18;;;;;;;5.03;2.55;;;;;;;0.16;67.50;101560.44;5053735;28;20029;-81
2022/04/02 05:02:46;;;;;;;6.70;3.10;;;;;;;0.08;67.07;101567.81;5054942;28;20029;-81
2022/04/02 05:05:14;;;;;;;4.70;2.70;;;;;;;0.08;66.92;101561.81;5054789;28;20028;-81
2022/04/02 05:07:42;;;;;;;7.45;2.92;;;;;;;0.08;66.65;101566.91;5053651;28;20122;-81
2022/04/02 05:10:10;;;;;;;5.25;2.80;;;;;;;0.08;66.93;101578.00;5054614;28;20100;-81
2022/04/02 05:12:36;;;;;;;7.82;3.00;;;;;;;0.09;67.81;101573.75;5054060;28;20032;-81
2022/04/02 05:15:02;;;;;;;6.55;2.70;;;;;;;0.06;66.98;101576.19;5053679;28;20057;-82
2022/04/02 05:17:27;;;;;;;6.22;2.90;;;;;;;0.05;66.63;101577.88;5054337;28;20052;-82
2022/04/02 05:19:53;;;;;;;4.63;2.88;;;;;;;0.08;67.32;101582.22;5054580;28;20079;-82
2022/04/02 05:22:18;;;;;;;6.43;3.00;;;;;;;0.07;67.09;101583.91;5053444;28;20025;-81
2022/04/02 05:24:44;;;;;;;5.40;2.72;;;;;;;0.08;67.13;101585.66;5054392;28;20120;-82
2022/04/02 05:27:09;;;;;;;5.72;2.85;;;;;;;0.04;66.58;101590.59;5054103;28;20040;-81
2022/04/02 05:29:35;;;;;;;4.90;2.70;;;;;;;0.07;67.08;101596.69;5053758;28;20131;-81
2022/04/02 05:32:00;;;;;;;6.05;3.00;;;;;;;0.08;67.03;101605.19;5054227;28;20031;-82
2022/04/02 05:34:25;;;;;;;7.80;2.80;;;;;;;0.09;67.29;101602.72;5052815;28;20056;-81
2022/04/02 05:36:51;;;;;;;5.63;2.70;;;;;;;0.09;67.57;101605.28;5054140;28;20409;-81
2022/04/02 05:39:16;;;;;;;4.65;2.70;;;;;;;0.12;67.49;101602.81;5053811;28;20028;-81
2022/04/02 05:41:41;;;;;;;6.97;2.72;;;;;;;0.10;67.32;101611.25;5053226;28;20025;-81
2022/04/02 05:44:09;;;;;;;4.97;2.95;;;;;;;0.10;67.05;101619.78;5053741;28;20029;-82
2022/04/02 05:46:35;;;;;;;5.15;2.90;;;;;;;0.13;67.78;101619.03;5054510;28;20029;-81
2022/04/02 05:49:01;;;;;;;4.85;2.60;;;;;;;0.17;67.82;101627.69;5053261;28;20031;-81
2022/04/02 05:51:26;;;;;;;8.93;3.20;;;;;;;0.13;67.57;101625.00;5053671;28;20028;-81
2022/04/02 05:53:51;;;;;;;5.82;2.80;;;;;;;0.18;68.08;101630.28;5053396;28;20017;-81
2022/04/02 06:04:03;;;;;;;6.45;3.10;;;;;;;0.21;67.76;101634.66;5260091;22;20041;-80
2022/04/02 06:06:30;;;;;;;5.10;2.70;;;;;;;0.24;67.48;101634.75;5033155;28;20025;-81
2022/04/02 06:08:56;;;;;;;4.97;2.70;;;;;;;0.26;68.42;101646.81;5033397;28;20029;-81
2022/04/02 06:11:27;;;;;;;2.97;2.40;;;;;;;0.30;68.13;101650.34;5032127;28;20026;-81
2022/04/02 06:13:52;;;;;;;4.55;2.65;;;;;;;0.31;68.11;101644.44;5033365;28;20033;-81
2022/04/02 06:16:20;;;;;;;3.35;2.40;;;;;;;0.33;68.02;101650.47;5032925;28;20087;-80
2022/04/02 06:18:53;;;;;;;4.30;2.50;;;;;;;0.38;67.97;101655.75;5033060;28;20044;-81
2022/04/02 06:21:19;;;;;;;5.22;2.70;;;;;;;0.45;67.50;101656.03;5033138;28;20481;-81
2022/04/02 06:23:47;;;;;;;4.13;2.67;;;;;;;0.44;68.02;101658.53;5034024;28;20026;-83
2022/04/02 06:26:13;;;;;;;4.85;2.55;;;;;;;0.43;68.25;101655.13;5033675;28;20021;-83
2022/04/02 06:28:43;;;;;;;4.93;2.72;;;;;;;0.49;68.28;101668.94;5032925;28;20034;-83
2022/04/02 06:31:15;;;;;;;6.28;3.03;;;;;;;0.50;68.16;101670.69;5032578;28;20025;-83
2022/04/02 06:33:40;;;;;;;4.47;2.88;;;;;;;0.49;68.01;101657.06;5032777;28;20052;-83
2022/04/02 06:36:07;;;;;;;4.65;2.78;;;;;;;0.58;67.81;101675.28;5032869;28;20053;-81
2022/04/02 06:38:32;;;;;;;4.63;2.72;;;;;;;0.59;68.16;101671.03;5032242;28;20414;-81
2022/04/02 06:40:58;;;;;;;4.03;2.60;;;;;;;0.66;67.76;101683.25;5032922;28;20104;-81
2022/04/02 06:43:23;;;;;;;4.55;2.67;;;;;;;0.69;67.55;101675.69;5032215;28;20116;-81
2022/04/02 06:45:51;;;;;;;5.88;2.70;;;;;;;0.75;67.61;101685.28;5032098;28;20029;-81
2022/04/02 06:48:16;;;;;;;6.22;3.08;;;;;;;0.77;66.86;101688.78;5032289;28;20037;-80
2022/04/02 06:50:43;;;;;;;4.80;2.80;;;;;;;0.84;67.09;101689.88;5032889;28;20022;-80
2022/04/02 06:53:08;;;;;;;4.03;2.70;;;;;;;0.84;67.45;101697.53;5032038;28;20088;-81
2022/04/02 06:55:33;;;;;;;4.75;2.70;;;;;;;0.87;67.24;101695.97;5032590;28;20029;-80
2022/04/02 06:58:25;;;;;;;5.28;3.13;;;;;;;0.95;66.87;101697.97;5032545;28;20083;-81
2022/04/02 07:00:50;;;;;;;5.45;2.92;;;;;;;0.97;66.77;101697.22;5031843;28;20029;-81
2022/04/02 07:03:15;;;;;;;6.63;2.95;;;;;;;1.06;67.05;101705.22;5032235;28;20539;-81
2022/04/02 07:05:40;;;;;;;5.13;2.58;;;;;;;1.14;66.51;101705.50;5032277;28;20030;-81
2022/04/02 07:08:06;;;;;;;7.70;3.15;;;;;;;1.18;66.50;101709.03;5032026;28;20028;-81
2022/04/02 07:10:31;;;;;;;6.13;3.10;;;;;;;1.20;66.02;101709.97;5032426;28;20021;-81
2022/04/02 07:12:59;;;;;;;5.88;3.10;;;;;;;1.28;66.06;101717.94;5031709;28;20025;-81
2022/04/02 07:15:27;;;;;;;5.47;3.00;;;;;;;1.35;65.06;101723.31;5036049;28;20083;-82
2022/04/02 07:17:52;;;;;;;5.25;3.00;;;;;;;1.38;66.48;101715.75;5036553;28;20097;-80
2022/04/02 07:23:40;;;;;;;5.93;2.80;;;;;;;1.47;66.44;101714.34;5032391;28;20116;-81
2022/04/02 07:26:06;;;;;;;5.72;2.92;;;;;;;1.51;66.16;101723.88;5036394;28;20026;-79
2022/04/02 07:28:32;;;;;;;5.82;2.90;;;;;;;1.52;66.17;101733.31;5035603;28;20022;-81
2022/04/02 07:30:58;;;;;;;8.25;3.28;;;;;;;1.50;65.93;101735.81;5036129;28;20477;-81
2022/04/02 07:33:23;;;;;;;6.40;3.15;;;;;;;1.56;65.93;101735.19;5036115;28;20040;-81
2022/04/02 07:36:04;;;;;;;6.22;3.47;;;;;;;1.63;65.71;101743.94;5035622;28;20436;-81
2022/04/02 07:39:03;;;;;;;6.63;3.15;;;;;;;1.67;65.45;101749.22;5035907;28;20101;-81
2022/04/02 07:41:42;;;;;;;5.63;3.30;;;;;;;1.69;64.39;101752.69;5034983;28;20026;-82
2022/04/02 07:44:32;;;;;;;5.88;3.47;;;;;;;1.73;65.63;101752.81;5036280;28;20108;-82
2022/04/02 07:46:59;;;;;;;6.43;3.20;;;;;;;1.80;64.44;101760.75;5036136;28;20029;-83
2022/04/02 07:49:27;;;;;;;6.50;3.47;;;;;;;1.88;65.55;101755.91;5035238;28;20036;-83
2022/04/02 07:51:54;;;;;;;9.55;3.67;;;;;;;1.97;64.55;101753.69;5036983;28;20029;-82
2022/04/02 07:54:26;;;;;;;6.22;3.03;;;;;;;2.05;64.83;101756.50;5093946;23;20110;-84
2022/04/02 07:56:57;;;;;;;6.65;2.90;;;;;;;2.16;64.64;101756.84;5053963;28;20025;-84
2022/04/02 07:59:36;;;;;;;6.00;3.40;;;;;;;2.26;65.03;101761.47;5055685;28;20104;-84
2022/04/02 08:02:02;;;;;;;5.47;3.10;;;;;;;2.40;64.69;101761.97;5057079;28;20098;-83
2022/04/02 08:04:29;;;;;;;5.55;3.28;;;;;;;2.47;63.14;101766.44;5055035;28;20079;-85
2022/04/02 08:06:57;;;;;;;8.35;3.55;;;;;;;2.42;63.60;101770.53;5036081;28;20025;-84
2022/04/02 08:09:24;;;;;;;8.40;3.80;;;;;;;2.33;62.59;101766.81;5048381;28;20029;-85
2022/04/02 08:11:51;;;;;;;9.05;3.58;;;;;;;2.30;63.81;101771.00;5055844;28;20431;-85
2022/04/02 08:14:22;;;;;;;6.88;3.65;;;;;;;2.38;64.00;101767.81;5056141;28;20029;-84
2022/04/02 08:16:48;;;;;;;9.18;3.97;;;;;;;2.43;63.97;101768.88;5055629;28;20095;-84
2022/04/02 08:19:14;;;;;;;8.90;3.70;;;;;;;2.50;62.37;101770.78;5056729;28;20112;-85
2022/04/02 08:21:42;;;;;;;7.07;3.72;;;;;;;2.54;63.35;101777.78;5056022;28;20279;-84
2022/04/02 08:24:07;;;;;;;7.53;3.72;;;;;;;2.61;63.53;101773.72;5054497;28;20048;-84
2022/04/02 08:26:56;;;;;;;9.63;4.18;;;;;;;2.61;62.61;101766.88;5049928;28;20052;-85
2022/04/02 08:29:43;;;;;;;9.95;3.88;;;;;;;2.65;62.66;101775.53;5051148;28;20025;-85
2022/04/02 08:32:22;;;;;;;8.65;4.13;;;;;;;2.36;62.38;101777.19;5049287;28;20113;-85
2022/04/02 08:35:08;;;;;;;8.13;3.90;;;;;;;2.52;64.06;101778.56;5037742;28;20040;-85
2022/04/02 08:38:00;;;;;;;7.22;3.67;;;;;;;2.61;63.18;101778.84;5048227;23;20056;-85
2022/04/02 08:40:56;;;;;;;7.15;3.88;;;;;;;2.74;62.85;101787.81;5032775;28;20457;-85
2022/04/02 08:44:06;;;;;;;11.43;4.05;;;;;;;2.60;62.02;101793.34;5033173;28;20500;-84
2022/04/02 08:46:39;;;;;;;8.20;4.00;;;;;;;2.54;62.52;101793.16;5032835;28;20033;-83
2022/04/02 08:49:38;;;;;;;8.32;4.30;;;;;;;2.60;62.91;101800.16;5035763;28;20056;-84
2022/04/02 08:52:15;;;;;;;9.98;4.28;;;;;;;2.47;63.20;101798.91;5034224;28;20021;-83
2022/04/02 08:54:52;;;;;;;10.75;4.20;;;;;;;2.59;63.66;101806.97;5034630;28;20029;-84
2022/04/02 08:57:32;;;;;;;10.02;4.30;;;;;;;2.61;63.06;101796.78;5034547;28;20477;-84
2022/04/02 09:00:11;;;;;;;7.95;4.53;;;;;;;2.57;62.87;101808.63;5033827;28;20381;-84
2022/04/02 09:02:57;;;;;;;9.63;4.20;;;;;;;2.44;63.05;101806.47;5033777;28;20033;-85
2022/04/02 09:05:33;;;;;;;9.03;4.43;;;;;;;2.36;63.44;101819.03;5027630;28;20061;-84
2022/04/02 09:08:14;;;;;;;10.85;4.80;;;;;;;2.29;63.23;101817.94;5034715;28;20021;-84
2022/04/02 09:11:01;;;;;;;12.50;4.82;;;;;;;2.35;63.79;101816.41;5034333;28;20030;-83
2022/04/02 09:13:56;;;;;;;10.60;4.53;;;;;;;2.43;63.65;101826.09;5032963;28;20495;-83
2022/04/02 09:16:54;;;;;;;11.00;4.55;;;;;;;2.46;63.29;101830.47;5034027;28;20040;-83
2022/04/02 09:19:28;;;;;;;11.90;4.68;;;;;;;2.46;63.13;101835.59;5034215;28;20108;-83
2022/04/02 09:22:26;;;;;;;10.32;4.40;;;;;;;2.50;62.93;101828.88;5034330;28;20026;-83
2022/04/02 09:25:26;;;;;;;9.02;4.22;;;;;;;2.62;62.54;101826.72;5034568;28;20021;-83
2022/04/02 09:28:07;;;;;;;9.32;4.53;;;;;;;2.84;63.58;101835.97;5033430;28;20547;-83
2022/04/02 09:31:15;;;;;;;10.52;4.47;;;;;;;2.62;61.13;101837.84;5034073;28;20029;-83
2022/04/02 09:34:23;;;;;;;11.15;4.50;;;;;;;2.41;61.86;101832.88;5033478;28;20033;-83
2022/04/02 09:37:04;;;;;;;10.85;4.72;;;;;;;2.29;61.42;101845.25;5033477;28;20033;-83
2022/04/02 09:39:46;;;;;;;9.77;4.47;;;;;;;2.36;61.76;101848.91;5013844;28;20046;-83
2022/04/02 09:42:50;;;;;;;9.65;4.20;;;;;;;2.50;61.87;101845.09;5030397;28;20120;-83
2022/04/02 09:45:22;;;;;;;11.55;4.60;;;;;;;2.70;62.90;101835.53;4934484;29;20122;-82
2022/04/02 09:47:50;;;;;;;9.73;4.50;;;;;;;2.93;61.82;101849.09;5016444;28;20108;-83
2022/04/02 09:50:16;;;;;;;9.85;4.45;;;;;;;2.99;61.01;101840.72;5033742;28;20029;-83
2022/04/02 09:52:58;;;;;;;10.32;4.50;;;;;;;3.05;60.51;101847.75;5034228;28;20029;-83
2022/04/02 09:55:28;;;;;;;9.27;4.30;;;;;;;3.17;60.02;101837.03;5032700;28;20125;-83
2022/04/02 09:58:13;;;;;;;9.00;4.40;;;;;;;3.20;58.92;101842.25;5033609;28;20432;-83
2022/04/02 10:01:01;;;;;;;8.02;4.20;;;;;;;3.26;60.29;101842.44;5033194;28;20052;-83
2022/04/02 10:03:35;;;;;;;8.02;3.90;;;;;;;3.28;59.72;101851.06;5031904;28;20033;-82
2022/04/02 10:06:22;;;;;;;10.27;4.20;;;;;;;3.36;59.47;101838.47;5033557;28;20037;-82
2022/04/02 10:09:06;;;;;;;;;;;;;;;3.64;58.28;101844.41;5033040;28;20385;-83
2022/04/02 10:11:34;;;;;;;6.97;3.60;;;;;;;3.93;57.43;101842.69;5033033;28;19955;-82
2022/04/02 10:14:02;;;;;;;8.30;4.10;;;;;;;4.04;58.00;101840.44;5033551;28;20145;-83
2022/04/02 10:16:29;;;;;;;8.05;3.95;;;;;;;3.88;56.10;101830.53;5032320;28;20063;-83
2022/04/02 10:18:56;;;;;;;7.20;3.85;;;;;;;3.84;57.23;101834.72;5033127;28;20064;-83
2022/04/02 10:21:22;;;;;;;8.20;3.90;;;;;;;3.73;57.66;101836.97;5032907;28;20017;-84
2022/04/02 10:23:53;;;;;;;8.13;3.95;;;;;;;3.70;58.63;101832.63;5032991;28;20036;-82
2022/04/02 10:26:21;;;;;;;6.85;3.80;;;;;;;3.73;59.77;101836.13;5035447;28;20105;-81
2022/04/02 10:29:08;;;;;;;7.85;3.80;;;;;;;3.57;61.61;101837.38;5033082;28;20385;-82
2022/04/02 10:31:35;;;;;;;8.43;4.10;;;;;;;3.40;62.45;101835.16;5032784;28;20048;-82
2022/04/02 10:34:12;;;;;;;7.53;3.90;;;;;;;3.30;62.61;101831.44;5033328;28;20095;-81
2022/04/02 10:36:44;;;;;;;;;;;;;;;3.18;60.68;101831.94;5033149;28;20033;-81
2022/04/02 10:39:10;;;;;;;7.57;3.80;;;;;;;3.23;62.90;101829.50;5032385;28;19916;-81
2022/04/02 10:41:40;;;;;;;6.45;3.78;;;;;;;3.25;61.52;101830.44;5032972;28;20128;-81
2022/04/02 10:44:37;;;;;;;8.93;4.13;;;;;;;3.22;62.71;101832.88;5032302;28;20521;-81
2022/04/02 10:47:05;;;;;;;8.18;3.88;;;;;;;3.20;62.26;101834.56;5013121;28;20124;-80
2022/04/02 10:49:36;;;;;;;6.80;3.80;;;;;;;3.14;61.58;101835.25;5032006;28;20036;-81
2022/04/02 10:52:02;;;;;;;8.55;4.10;;;;;;;3.07;61.64;101833.28;5032194;28;20038;-81
2022/04/02 10:54:29;;;;;;;8.00;3.95;;;;;;;3.12;62.94;101836.00;5033225;28;20031;-81
2022/04/02 10:56:55;;;;;;;6.93;3.78;;;;;;;3.12;63.58;101834.31;5032766;28;20488;-81
2022/04/02 10:59:21;;;;;;;6.10;3.22;;;;;;;3.13;63.16;101833.50;5032082;28;20038;-81
2022/04/02 11:01:52;;;;;;;7.32;3.80;;;;;;;3.14;63.29;101836.91;5032691;28;20036;-81
2022/04/02 11:04:27;;;;;;;8.32;4.25;;;;;;;3.14;62.56;101831.78;5032402;28;20025;-81
2022/04/02 11:06:52;;;;;;;8.45;4.20;;;;;;;3.14;60.91;101835.25;5031740;28;20025;-81
2022/04/02 11:09:41;;;;;;;8.35;3.90;;;;;;;3.15;60.71;101830.97;5031137;28;20032;-81
2022/04/02 11:12:17;;;;;;;9.77;4.00;;;;;;;3.18;60.53;101833.63;5031855;28;20022;-81
2022/04/02 11:14:44;;;;;;;7.78;3.88;;;;;;;3.28;61.46;101829.63;5032561;28;20120;-81
2022/04/02 11:17:30;;;;;;;9.00;4.13;;;;;;;3.43;58.06;101830.13;5032667;28;20033;-81
2022/04/02 11:20:17;;;;;;;8.67;3.70;;;;;;;3.74;58.83;101831.00;5032027;28;20029;-81
2022/04/02 11:22:51;;;;;;;8.02;3.63;;;;;;;4.11;58.11;101818.34;5032639;28;20351;-81
2022/04/02 11:25:28;;;;;;;7.85;3.75;;;;;;;4.23;56.36;101812.66;5032293;28;20030;-81
2022/04/02 11:27:55;;;;;;;8.27;3.80;;;;;;;4.20;55.45;101818.59;5031777;28;20030;-80
2022/04/02 11:30:22;;;;;;;7.75;4.05;;;;;;;4.16;55.21;101821.91;5032251;28;20056;-80
2022/04/02 11:32:50;;;;;;;7.20;3.60;;;;;;;4.13;56.68;101821.81;5031474;28;20500;-80
2022/04/02 11:35:25;;;;;;;6.63;3.65;;;;;;;4.06;56.49;101827.63;5031576;28;20030;-81
2022/04/02 11:38:03;;;;;;;7.88;3.90;;;;;;;4.01;51.79;101825.78;5032375;28;20503;-81
2022/04/02 11:40:29;;;;;;;6.68;3.42;;;;;;;3.87;50.99;101827.13;5031507;28;20187;-81
2022/04/02 11:42:59;;;;;;;11.77;3.43;;;;;;;3.91;51.65;101817.78;5032624;28;20378;-81
2022/04/02 11:45:28;;;;;;;5.53;3.40;;;;;;;4.00;50.07;101825.75;5030013;28;20034;-82
2022/04/02 11:48:00;;;;;;;4.80;3.03;;;;;;;4.30;50.85;101823.16;5015214;28;20040;-83
2022/04/02 11:50:29;;;;;;;6.43;3.08;;;;;;;4.72;48.17;101820.75;5012194;28;20506;-82
2022/04/02 11:52:56;;;;;;;6.00;3.08;;;;;;;5.08;50.26;101818.19;5013330;28;20068;-81
2022/04/02 11:55:24;;;;;;;5.25;3.00;;;;;;;5.55;49.39;101824.34;5011589;28;20101;-77
2022/04/02 11:58:13;;;;;;;6.00;2.95;;;;;;;5.56;44.74;101824.41;5020533;28;20108;-82
2022/04/02 12:00:44;;;;;;;5.20;2.97;;;;;;;5.51;46.18;101822.56;5029288;28;20029;-82